createdAt,value
2023-05-04T00:00:59.051Z,27.69
2023-05-04T00:01:58.881Z,27.70
2023-05-04T00:02:58.793Z,27.69
2023-05-04T00:03:58.697Z,27.69
2023-05-04T00:04:58.486Z,27.67
2023-05-04T00:05:58.248Z,27.69
2023-05-04T00:06:58.075Z,27.69
2023-05-04T00:07:57.903Z,27.67
2023-05-04T00:08:57.731Z,27.69
2023-05-04T00:09:57.580Z,27.67
2023-05-04T00:10:57.434Z,27.67
2023-05-04T00:11:57.271Z,27.69
2023-05-04T00:12:57.117Z,27.66
2023-05-04T00:13:56.905Z,27.69
2023-05-04T00:14:56.741Z,27.69
2023-05-04T00:15:56.624Z,27.65
2023-05-04T00:16:56.417Z,27.67
2023-05-04T00:17:56.266Z,27.66
2023-05-04T00:18:56.079Z,27.66
2023-05-04T00:19:55.909Z,27.67
2023-05-04T00:20:55.754Z,27.69
2023-05-04T00:21:55.596Z,27.66
2023-05-04T00:22:55.461Z,27.67
2023-05-04T00:23:55.266Z,27.69
2023-05-04T00:24:55.131Z,27.69
2023-05-04T00:25:54.931Z,27.66
2023-05-04T00:26:54.767Z,27.66
2023-05-04T00:27:54.620Z,27.66
2023-05-04T00:28:54.452Z,27.67
2023-05-04T00:29:54.289Z,27.66
2023-05-04T00:30:54.124Z,27.65
2023-05-04T00:31:54.003Z,27.66
2023-05-04T00:32:53.824Z,27.65
2023-05-04T00:33:53.636Z,27.69
2023-05-04T00:34:53.503Z,27.66
2023-05-04T00:35:53.332Z,27.66
2023-05-04T00:36:53.154Z,27.66
2023-05-04T00:37:52.986Z,27.63
2023-05-04T00:38:52.864Z,27.65
2023-05-04T00:39:52.654Z,27.63
2023-05-04T00:40:52.508Z,27.63
2023-05-04T00:41:52.346Z,27.66
2023-05-04T00:42:52.161Z,27.66
2023-05-04T00:43:52.010Z,27.66
2023-05-04T00:44:51.878Z,27.62
2023-05-04T00:45:51.701Z,27.65
2023-05-04T00:46:51.549Z,27.62
2023-05-04T00:47:51.398Z,27.63
2023-05-04T00:48:51.208Z,27.63
2023-05-04T00:49:51.051Z,27.65
2023-05-04T00:50:50.883Z,27.63
2023-05-04T00:51:50.740Z,27.65
2023-05-04T00:52:50.555Z,27.65
2023-05-04T00:53:50.383Z,27.65
2023-05-04T00:54:50.229Z,27.63
2023-05-04T00:55:50.069Z,27.65
2023-05-04T00:56:49.897Z,27.63
2023-05-04T00:57:49.729Z,27.65
2023-05-04T00:58:49.561Z,27.62
2023-05-04T00:59:49.404Z,27.65
2023-05-04T01:00:49.251Z,27.62
2023-05-04T01:01:49.077Z,27.63
2023-05-04T01:02:48.949Z,27.65
2023-05-04T01:03:48.808Z,27.63
2023-05-04T01:04:48.603Z,27.62
2023-05-04T01:05:48.432Z,27.63
2023-05-04T01:06:48.296Z,27.62
2023-05-04T01:07:48.123Z,27.63
2023-05-04T01:08:47.939Z,27.60
2023-05-04T01:09:47.800Z,27.63
2023-05-04T01:10:47.636Z,27.62
2023-05-04T01:11:47.476Z,27.62
2023-05-04T01:12:47.369Z,27.62
2023-05-04T01:13:47.146Z,27.60
2023-05-04T01:14:46.994Z,27.62
2023-05-04T01:15:46.822Z,27.62
2023-05-04T01:16:46.862Z,27.62
2023-05-04T01:17:46.551Z,27.60
2023-05-04T01:18:46.368Z,27.62
2023-05-04T01:19:46.186Z,27.62
2023-05-04T01:20:46.025Z,27.59
2023-05-04T01:21:45.908Z,27.60
2023-05-04T01:22:45.732Z,27.62
2023-05-04T01:23:45.598Z,27.62
2023-05-04T01:24:45.428Z,27.62
2023-05-04T01:25:45.281Z,27.62
2023-05-04T01:26:45.138Z,27.59
2023-05-04T01:27:44.972Z,27.62
2023-05-04T01:28:44.829Z,27.60
2023-05-04T01:29:44.687Z,27.59
2023-05-04T01:30:44.569Z,27.60
2023-05-04T01:31:44.395Z,27.59
2023-05-04T01:32:44.378Z,27.60
2023-05-04T01:33:44.095Z,27.60
2023-05-04T01:34:43.910Z,27.59
2023-05-04T01:35:43.751Z,27.60
2023-05-04T01:36:43.598Z,27.59
2023-05-04T01:37:43.430Z,27.60
2023-05-04T01:38:43.260Z,27.62
2023-05-04T01:39:43.107Z,27.59
2023-05-04T01:40:42.940Z,27.59
2023-05-04T01:41:42.792Z,27.59
2023-05-04T01:42:42.633Z,27.60
2023-05-04T01:43:42.467Z,27.59
2023-05-04T01:44:42.317Z,27.59
2023-05-04T01:45:42.155Z,27.59
2023-05-04T01:46:42.108Z,27.58
2023-05-04T01:47:41.891Z,27.59
2023-05-04T01:48:41.696Z,27.59
2023-05-04T01:49:41.531Z,27.59
2023-05-04T01:50:41.372Z,27.58
2023-05-04T01:51:41.216Z,27.58
2023-05-04T01:52:41.059Z,27.58
2023-05-04T01:53:40.923Z,27.58
2023-05-04T01:54:40.749Z,27.58
2023-05-04T01:55:40.576Z,27.55
2023-05-04T01:56:40.419Z,27.56
2023-05-04T01:57:40.259Z,27.58
2023-05-04T01:58:40.118Z,27.58
2023-05-04T01:59:39.959Z,27.59
2023-05-04T02:00:39.814Z,27.58
2023-05-04T02:01:39.686Z,27.59
2023-05-04T02:02:39.518Z,27.56
2023-05-04T02:03:39.398Z,27.56
2023-05-04T02:04:39.168Z,27.59
2023-05-04T02:05:39.000Z,27.60
2023-05-04T02:06:38.873Z,27.58
2023-05-04T02:07:38.672Z,27.56
2023-05-04T02:08:38.565Z,27.58
2023-05-04T02:09:38.383Z,27.56
2023-05-04T02:10:38.213Z,27.58
2023-05-04T02:11:38.064Z,27.58
2023-05-04T02:12:37.996Z,27.56
2023-05-04T02:13:37.739Z,27.55
2023-05-04T02:14:37.593Z,27.56
2023-05-04T02:15:37.425Z,27.58
2023-05-04T02:16:37.449Z,27.55
2023-05-04T02:17:37.149Z,27.53
2023-05-04T02:18:36.969Z,27.56
2023-05-04T02:19:36.812Z,27.55
2023-05-04T02:20:36.643Z,27.56
2023-05-04T02:21:36.496Z,27.55
2023-05-04T02:22:36.365Z,27.56
2023-05-04T02:23:36.200Z,27.52
2023-05-04T02:24:36.058Z,27.56
2023-05-04T02:25:35.901Z,27.56
2023-05-04T02:26:35.756Z,27.55
2023-05-04T02:27:35.627Z,27.53
2023-05-04T02:28:35.472Z,27.53
2023-05-04T02:29:35.335Z,27.53
2023-05-04T02:30:35.181Z,27.55
2023-05-04T02:31:35.054Z,27.53
2023-05-04T02:32:34.934Z,27.52
2023-05-04T02:33:34.712Z,27.52
2023-05-04T02:34:34.564Z,27.53
2023-05-04T02:35:34.413Z,27.52
2023-05-04T02:36:34.270Z,27.55
2023-05-04T02:37:34.135Z,27.53
2023-05-04T02:38:33.990Z,27.53
2023-05-04T02:39:33.844Z,27.52
2023-05-04T02:40:33.691Z,27.53
2023-05-04T02:41:33.533Z,27.55
2023-05-04T02:42:33.450Z,27.52
2023-05-04T02:43:33.251Z,27.53
2023-05-04T02:44:33.103Z,27.53
2023-05-04T02:45:33.005Z,27.52
2023-05-04T02:46:32.826Z,27.52
2023-05-04T02:47:32.725Z,27.55
2023-05-04T02:48:32.521Z,27.50
2023-05-04T02:49:32.390Z,27.50
2023-05-04T02:50:32.240Z,27.45
2023-05-04T02:51:32.093Z,27.38
2023-05-04T02:52:32.070Z,27.31
2023-05-04T02:53:31.847Z,27.25
2023-05-04T02:54:31.718Z,27.17
2023-05-04T02:55:31.599Z,27.07
2023-05-04T02:56:31.492Z,26.98
2023-05-04T02:57:31.380Z,26.90
2023-05-04T02:58:31.299Z,26.86
2023-05-04T02:59:31.198Z,26.76
2023-05-04T03:00:31.119Z,26.70
2023-05-04T03:01:32.193Z,26.62
2023-05-04T03:02:31.018Z,26.52
2023-05-04T03:03:30.738Z,26.45
2023-05-04T03:04:30.632Z,26.39
2023-05-04T03:05:30.442Z,26.34
2023-05-04T03:06:30.283Z,26.27
2023-05-04T03:07:30.151Z,26.20
2023-05-04T03:08:30.033Z,26.15
2023-05-04T03:09:29.853Z,26.13
2023-05-04T03:10:29.711Z,26.04
2023-05-04T03:11:29.561Z,26.00
2023-05-04T03:12:29.453Z,25.93
2023-05-04T03:13:29.303Z,25.90
2023-05-04T03:14:29.157Z,25.87
2023-05-04T03:15:29.005Z,25.81
2023-05-04T03:16:28.926Z,25.80
2023-05-04T03:17:28.764Z,25.76
2023-05-04T03:18:28.583Z,25.69
2023-05-04T03:19:28.452Z,25.69
2023-05-04T03:20:28.325Z,25.63
2023-05-04T03:21:28.212Z,25.62
2023-05-04T03:22:28.056Z,25.59
2023-05-04T03:23:27.927Z,25.56
2023-05-04T03:24:27.782Z,25.53
2023-05-04T03:25:27.639Z,25.50
2023-05-04T03:26:27.495Z,25.49
2023-05-04T03:27:27.391Z,25.45
2023-05-04T03:28:27.226Z,25.45
2023-05-04T03:29:27.116Z,25.42
2023-05-04T03:30:26.969Z,25.39
2023-05-04T03:31:26.844Z,25.38
2023-05-04T03:32:26.773Z,25.35
2023-05-04T03:33:26.541Z,25.36
2023-05-04T03:34:26.403Z,25.35
2023-05-04T03:35:26.276Z,25.32
2023-05-04T03:36:26.139Z,25.31
2023-05-04T03:37:26.012Z,25.29
2023-05-04T03:38:25.880Z,25.26
2023-05-04T03:39:25.752Z,25.28
2023-05-04T03:40:25.626Z,25.26
2023-05-04T03:41:25.483Z,25.22
2023-05-04T03:42:25.360Z,25.19
2023-05-04T03:43:25.199Z,25.19
2023-05-04T03:44:25.067Z,25.17
2023-05-04T03:45:24.927Z,25.15
2023-05-04T03:46:24.868Z,25.17
2023-05-04T03:47:24.679Z,25.14
2023-05-04T03:48:24.533Z,25.11
2023-05-04T03:49:24.419Z,25.14
2023-05-04T03:50:24.271Z,25.10
2023-05-04T03:51:24.186Z,25.11
2023-05-04T03:52:24.029Z,25.11
2023-05-04T03:53:23.886Z,25.11
2023-05-04T03:54:23.736Z,25.07
2023-05-04T03:55:23.651Z,25.04
2023-05-04T03:56:23.472Z,25.04
2023-05-04T03:57:23.360Z,25.04
2023-05-04T03:58:23.213Z,25.04
2023-05-04T03:59:23.105Z,25.03
2023-05-04T04:00:22.961Z,25.01
2023-05-04T04:01:22.837Z,24.98
2023-05-04T04:02:22.793Z,24.97
2023-05-04T04:03:22.811Z,24.95
2023-05-04T04:04:22.680Z,24.97
2023-05-04T04:05:22.576Z,24.95
2023-05-04T04:06:22.510Z,24.95
2023-05-04T04:07:22.432Z,24.93
2023-05-04T04:08:22.357Z,24.93
2023-05-04T04:09:22.242Z,24.91
2023-05-04T04:10:22.111Z,24.91
2023-05-04T04:11:21.994Z,24.91
2023-05-04T04:12:21.870Z,24.91
2023-05-04T04:13:21.793Z,24.87
2023-05-04T04:14:21.605Z,24.90
2023-05-04T04:15:21.461Z,24.87
2023-05-04T04:16:21.457Z,24.88
2023-05-04T04:17:21.277Z,24.87
2023-05-04T04:18:21.085Z,24.86
2023-05-04T04:19:20.940Z,24.87
2023-05-04T04:20:20.821Z,24.83
2023-05-04T04:21:20.701Z,24.83
2023-05-04T04:22:20.605Z,24.80
2023-05-04T04:23:20.544Z,24.80
2023-05-04T04:24:20.476Z,24.80
2023-05-04T04:25:20.370Z,24.81
2023-05-04T04:26:20.226Z,24.80
2023-05-04T04:27:20.103Z,24.81
2023-05-04T04:28:19.957Z,24.77
2023-05-04T04:29:19.849Z,24.80
2023-05-04T04:30:19.717Z,24.79
2023-05-04T04:31:19.631Z,24.77
2023-05-04T04:32:19.481Z,24.76
2023-05-04T04:33:19.427Z,24.76
2023-05-04T04:34:19.362Z,24.76
2023-05-04T04:35:19.305Z,24.76
2023-05-04T04:36:19.250Z,24.74
2023-05-04T04:37:19.187Z,24.74
2023-05-04T04:38:19.135Z,24.76
2023-05-04T04:39:19.158Z,24.73
2023-05-04T04:40:19.008Z,24.73
2023-05-04T04:41:18.964Z,24.73
2023-05-04T04:42:18.921Z,24.74
2023-05-04T04:43:18.859Z,24.73
2023-05-04T04:44:18.796Z,24.76
2023-05-04T04:45:18.726Z,24.73
2023-05-04T04:46:18.722Z,24.73
2023-05-04T04:47:18.615Z,24.71
2023-05-04T04:48:18.543Z,24.69
2023-05-04T04:49:18.486Z,24.70
2023-05-04T04:50:18.426Z,24.67
2023-05-04T04:51:18.379Z,24.66
2023-05-04T04:52:18.362Z,24.66
2023-05-04T04:53:18.257Z,24.67
2023-05-04T04:54:18.211Z,24.67
2023-05-04T04:55:18.171Z,24.67
2023-05-04T04:56:18.084Z,24.67
2023-05-04T04:57:18.050Z,24.66
2023-05-04T04:58:17.979Z,24.70
2023-05-04T04:59:17.935Z,24.64
2023-05-04T05:00:17.872Z,24.64
2023-05-04T05:01:17.932Z,24.64
2023-05-04T05:02:17.788Z,24.63
2023-05-04T05:03:17.769Z,24.66
2023-05-04T05:04:17.683Z,24.64
2023-05-04T05:05:17.612Z,24.64
2023-05-04T05:06:17.568Z,24.63
2023-05-04T05:07:17.470Z,24.64
2023-05-04T05:08:17.394Z,24.64
2023-05-04T05:09:17.357Z,24.63
2023-05-04T05:10:17.278Z,24.66
2023-05-04T05:11:17.211Z,24.62
2023-05-04T05:12:17.176Z,24.63
2023-05-04T05:13:17.198Z,24.62
2023-05-04T05:14:17.051Z,24.64
2023-05-04T05:15:16.979Z,24.62
2023-05-04T05:16:16.955Z,24.62
2023-05-04T05:17:16.907Z,24.60
2023-05-04T05:18:16.840Z,24.60
2023-05-04T05:19:16.776Z,24.62
2023-05-04T05:20:16.723Z,24.64
2023-05-04T05:21:16.639Z,24.60
2023-05-04T05:22:16.608Z,24.62
2023-05-04T05:23:16.557Z,24.59
2023-05-04T05:24:16.475Z,24.60
2023-05-04T05:25:16.410Z,24.59
2023-05-04T05:26:16.332Z,24.60
2023-05-04T05:27:16.292Z,24.58
2023-05-04T05:28:16.227Z,24.60
2023-05-04T05:29:16.170Z,24.69
2023-05-04T05:30:16.130Z,24.73
2023-05-04T05:31:16.054Z,24.83
2023-05-04T05:32:16.007Z,24.91
2023-05-04T05:33:15.930Z,25.01
2023-05-04T05:34:15.790Z,25.11
2023-05-04T10:09:41.533Z,24.31
2023-05-04T10:10:41.430Z,24.77
2023-05-04T10:11:41.444Z,25.13
2023-05-04T10:12:41.276Z,25.39
2023-05-04T10:13:41.152Z,25.63
2023-05-04T10:14:40.992Z,25.81
2023-05-04T10:15:40.911Z,25.94
2023-05-04T10:16:40.733Z,26.07
2023-05-04T10:17:40.624Z,26.18
2023-05-04T10:18:40.459Z,26.27
2023-05-04T10:19:40.372Z,26.36
2023-05-04T10:20:40.170Z,26.41
2023-05-04T10:21:40.074Z,26.46
2023-05-04T10:22:39.903Z,26.49
2023-05-04T10:23:39.831Z,26.53
2023-05-04T10:24:39.585Z,26.62
2023-05-04T10:25:39.559Z,26.66
2023-05-04T10:26:39.280Z,26.70
2023-05-04T10:27:39.152Z,26.76
2023-05-04T10:28:38.992Z,26.79
2023-05-04T10:29:38.838Z,26.83
2023-05-04T10:30:38.671Z,26.86
2023-05-04T10:31:38.591Z,26.87
2023-05-04T10:32:38.437Z,26.91
2023-05-04T10:33:38.245Z,26.90
2023-05-04T10:34:38.080Z,26.93
2023-05-04T10:35:37.906Z,26.96
2023-05-04T10:36:37.755Z,27.00
2023-05-04T10:37:37.647Z,26.96
2023-05-04T10:38:37.471Z,26.91
2023-05-04T10:39:37.273Z,26.83
2023-05-04T10:40:37.137Z,26.84
2023-05-04T10:41:36.982Z,26.86
2023-05-04T10:42:36.828Z,26.84
2023-05-04T10:43:36.708Z,26.76
2023-05-04T10:44:36.523Z,26.76
2023-05-04T10:45:36.444Z,26.73
2023-05-04T10:46:36.295Z,26.70
2023-05-04T10:47:36.244Z,26.64
2023-05-04T10:48:36.158Z,26.58
2023-05-04T10:49:36.114Z,26.52
2023-05-04T10:50:35.934Z,26.48
2023-05-04T10:51:46.680Z,26.42
2023-05-04T10:52:36.685Z,26.39
2023-05-04T10:53:35.543Z,26.41
2023-05-04T10:54:35.427Z,26.42
2023-05-04T10:55:35.246Z,26.52
2023-05-04T10:56:35.089Z,26.59
2023-05-04T10:57:34.925Z,26.70
2023-05-04T10:58:34.782Z,26.80
2023-05-04T10:59:36.568Z,26.90
2023-05-04T11:00:34.461Z,27.00
2023-05-04T11:01:34.339Z,27.11
2023-05-04T11:02:34.185Z,27.20
2023-05-04T11:03:34.162Z,27.28
2023-05-04T11:04:33.810Z,27.35
2023-05-04T11:05:33.642Z,27.44
2023-05-04T11:06:33.475Z,27.53
2023-05-04T11:07:33.307Z,27.59
2023-05-04T11:08:33.122Z,27.66
2023-05-04T11:09:33.029Z,27.73
2023-05-04T11:10:32.966Z,27.79
2023-05-04T11:11:32.838Z,27.87
2023-05-04T11:12:32.793Z,27.92
2023-05-04T11:13:32.660Z,27.99
2023-05-04T11:14:32.413Z,28.04
2023-05-04T11:15:32.275Z,28.07
2023-05-04T11:16:32.142Z,28.10
2023-05-04T11:17:31.940Z,28.11
2023-05-04T11:18:31.794Z,28.17
2023-05-04T11:19:31.583Z,28.17
2023-05-04T11:20:31.456Z,28.20
2023-05-04T11:21:31.292Z,28.22
2023-05-04T11:22:31.211Z,28.22
2023-05-04T11:23:31.000Z,28.25
2023-05-04T11:24:30.853Z,28.20
2023-05-04T11:25:30.637Z,28.21
2023-05-04T11:26:30.461Z,28.24
2023-05-04T11:27:30.330Z,28.25
2023-05-04T11:28:30.135Z,28.30
2023-05-04T11:29:29.958Z,28.30
2023-05-04T11:30:29.808Z,28.35
2023-05-04T11:31:29.649Z,28.35
2023-05-04T11:32:29.442Z,28.35
2023-05-04T11:33:29.233Z,28.38
2023-05-04T11:34:29.095Z,28.37
2023-05-04T11:35:28.927Z,28.39
2023-05-04T11:36:28.727Z,28.42
2023-05-04T11:37:28.579Z,28.42
2023-05-04T11:38:28.386Z,28.44
2023-05-04T11:39:28.229Z,28.47
2023-05-04T11:40:28.030Z,28.47
2023-05-04T11:41:27.890Z,28.45
2023-05-04T11:42:27.731Z,28.47
2023-05-04T11:43:27.598Z,28.48
2023-05-04T11:44:27.498Z,28.49
2023-05-04T11:45:27.400Z,28.51
2023-05-04T11:46:27.229Z,28.54
2023-05-04T11:47:27.084Z,28.52
2023-05-04T11:48:26.928Z,28.52
2023-05-04T11:49:26.821Z,28.55
2023-05-04T11:50:26.659Z,28.54
2023-05-04T11:51:26.531Z,28.56
2023-05-04T11:52:26.369Z,28.59
2023-05-04T11:53:26.238Z,28.58
2023-05-04T11:54:26.037Z,28.59
2023-05-04T11:55:25.868Z,28.59
2023-05-04T11:56:25.682Z,28.62
2023-05-04T11:57:25.491Z,28.63
2023-05-04T11:58:25.340Z,28.63
2023-05-04T11:59:25.160Z,28.66
2023-05-04T12:00:24.984Z,28.65
2023-05-04T12:01:24.799Z,28.66
2023-05-04T12:02:24.675Z,28.70
2023-05-04T12:03:25.971Z,28.70
2023-05-04T12:04:25.323Z,28.75
2023-05-04T12:05:24.129Z,28.76
2023-05-04T12:06:23.910Z,28.77
2023-05-04T12:07:23.719Z,28.80
2023-05-04T12:08:23.558Z,28.83
2023-05-04T12:09:23.366Z,28.86
2023-05-04T12:10:23.206Z,28.86
2023-05-04T12:11:22.991Z,28.89
2023-05-04T12:12:22.818Z,28.90
2023-05-04T12:13:22.655Z,28.92
2023-05-04T12:14:22.475Z,28.93
2023-05-04T12:15:22.302Z,28.94
2023-05-04T12:16:22.137Z,28.97
2023-05-04T12:17:22.116Z,29.00
2023-05-04T12:18:21.736Z,29.00
2023-05-04T12:19:21.563Z,29.03
2023-05-04T12:20:21.395Z,29.04
2023-05-04T12:21:21.181Z,29.04
2023-05-04T12:22:21.035Z,29.06
2023-05-04T12:23:20.834Z,29.09
2023-05-04T12:24:20.688Z,29.10
2023-05-04T12:25:20.457Z,29.13
2023-05-04T12:26:20.296Z,29.13
2023-05-04T12:27:20.144Z,29.13
2023-05-04T12:28:19.926Z,29.14
2023-05-04T12:29:19.728Z,29.16
2023-05-04T12:30:19.545Z,29.17
2023-05-04T12:31:19.380Z,29.18
2023-05-04T12:32:19.164Z,29.20
2023-05-04T12:33:19.086Z,29.20
2023-05-04T12:34:18.823Z,29.20
2023-05-04T12:35:18.621Z,29.21
2023-05-04T12:36:18.453Z,29.21
2023-05-04T12:37:18.262Z,29.25
2023-05-04T12:38:18.064Z,29.25
2023-05-04T12:39:17.870Z,29.25
2023-05-04T12:40:27.634Z,29.25
2023-05-04T12:41:18.506Z,29.27
2023-05-04T12:42:17.333Z,29.28
2023-05-04T12:43:18.570Z,29.29
2023-05-04T12:44:16.929Z,29.31
2023-05-04T12:45:16.725Z,29.31
2023-05-04T12:46:16.592Z,29.31
2023-05-04T12:47:16.360Z,29.29
2023-05-04T12:48:16.193Z,29.31
2023-05-04T12:49:15.994Z,29.31
2023-05-04T12:50:15.805Z,29.31
2023-05-04T12:51:15.597Z,29.28
2023-05-04T12:52:15.445Z,29.29
2023-05-04T12:53:15.254Z,29.27
2023-05-04T12:54:15.073Z,29.25
2023-05-04T12:55:14.863Z,29.24
2023-05-04T12:56:14.695Z,29.22
2023-05-04T12:57:14.502Z,29.21
2023-05-04T12:58:14.310Z,29.18
2023-05-04T12:59:14.152Z,29.21
2023-05-04T13:00:13.972Z,29.20
2023-05-04T13:01:13.837Z,29.20
2023-05-04T13:02:13.647Z,29.20
2023-05-04T13:03:13.539Z,29.18
2023-05-04T13:04:13.324Z,29.18
2023-05-04T13:05:13.213Z,29.20
2023-05-04T13:06:12.818Z,29.21
2023-05-04T13:07:12.635Z,29.21
2023-05-04T13:08:12.469Z,29.18
2023-05-04T13:09:12.272Z,29.20
2023-05-04T13:10:12.077Z,29.21
2023-05-04T13:11:11.877Z,29.20
2023-05-04T13:12:11.716Z,29.20
2023-05-04T13:13:11.568Z,29.20
2023-05-04T13:14:11.406Z,29.20
2023-05-04T13:15:11.147Z,29.22
2023-05-04T13:16:11.046Z,29.20
2023-05-04T13:17:10.770Z,29.21
2023-05-04T13:18:10.588Z,29.20
2023-05-04T13:19:10.397Z,29.22
2023-05-04T13:20:10.270Z,29.21
2023-05-04T13:21:09.996Z,29.21
2023-05-04T13:22:09.832Z,29.21
2023-05-04T13:23:09.664Z,29.22
2023-05-04T13:24:09.437Z,29.21
2023-05-04T13:25:09.468Z,29.18
2023-05-04T13:26:09.059Z,29.22
2023-05-04T13:27:08.889Z,29.24
2023-05-04T13:28:08.694Z,29.22
2023-05-04T13:29:08.511Z,29.24
2023-05-04T13:30:08.353Z,29.22
2023-05-04T13:31:08.139Z,29.22
2023-05-04T13:32:07.913Z,29.24
2023-05-04T13:33:20.902Z,29.24
2023-05-04T13:34:08.545Z,29.27
2023-05-04T13:35:07.542Z,29.25
2023-05-04T13:36:07.158Z,29.28
2023-05-04T13:37:06.984Z,29.29
2023-05-04T13:38:06.779Z,29.29
2023-05-04T13:39:06.688Z,29.31
2023-05-04T13:40:06.383Z,29.32
2023-05-04T13:41:06.236Z,29.34
2023-05-04T13:42:06.003Z,29.35
2023-05-04T13:43:05.845Z,29.35
2023-05-04T13:44:05.638Z,29.37
2023-05-04T13:45:05.722Z,29.37
2023-05-04T13:46:05.236Z,29.39
2023-05-04T13:47:05.074Z,29.41
2023-05-04T13:48:04.888Z,29.39
2023-05-04T13:49:04.646Z,29.42
2023-05-04T13:50:04.466Z,29.42
2023-05-04T13:51:04.249Z,29.42
2023-05-04T13:52:04.065Z,29.46
2023-05-04T13:53:03.976Z,29.42
2023-05-04T13:54:03.686Z,29.45
2023-05-04T13:55:03.556Z,29.44
2023-05-04T13:56:03.299Z,29.45
2023-05-04T13:57:03.093Z,29.45
2023-05-04T13:58:02.916Z,29.46
2023-05-04T13:59:02.740Z,29.45
2023-05-04T14:00:06.507Z,29.46
2023-05-04T14:01:02.378Z,29.48
2023-05-04T14:02:02.208Z,29.46
2023-05-04T14:03:02.039Z,29.48
2023-05-04T14:04:01.780Z,29.46
2023-05-04T14:05:01.623Z,29.48
2023-05-04T14:06:01.409Z,29.46
2023-05-04T14:07:01.212Z,29.49
2023-05-04T14:08:01.013Z,29.49
2023-05-04T14:09:00.823Z,29.48
2023-05-04T14:10:00.680Z,29.48
2023-05-04T14:11:00.445Z,29.48
2023-05-04T14:12:00.283Z,29.49
2023-05-04T14:13:00.181Z,29.49
2023-05-04T14:13:59.891Z,29.49
2023-05-04T14:14:59.722Z,29.51
2023-05-04T14:15:59.552Z,29.51
2023-05-04T14:16:59.351Z,29.49
2023-05-04T14:17:59.228Z,29.52
2023-05-04T14:18:59.011Z,29.52
2023-05-04T14:19:58.847Z,29.49
2023-05-04T14:20:58.601Z,29.51
2023-05-04T14:21:58.443Z,29.51
2023-05-04T14:22:58.239Z,29.49
2023-05-04T14:23:58.064Z,29.51
2023-05-04T14:24:57.880Z,29.48
2023-05-04T14:25:57.710Z,29.49
2023-05-04T14:26:57.509Z,29.51
2023-05-04T14:27:57.316Z,29.48
2023-05-04T14:28:57.146Z,29.51
2023-05-04T14:29:57.024Z,29.51
2023-05-04T14:30:56.779Z,29.51
2023-05-04T14:31:56.720Z,29.52
2023-05-04T14:32:56.469Z,29.48
2023-05-04T14:33:56.951Z,29.49
2023-05-04T14:34:56.092Z,29.49
2023-05-04T14:35:55.914Z,29.49
2023-05-04T14:36:55.741Z,29.48
2023-05-04T14:37:55.570Z,29.48
2023-05-04T14:38:55.385Z,29.45
2023-05-04T14:39:55.212Z,29.49
2023-05-04T14:40:55.038Z,29.48
2023-05-04T14:41:54.875Z,29.48
2023-05-04T14:42:54.760Z,29.49
2023-05-04T14:43:54.633Z,29.46
2023-05-04T14:44:54.420Z,29.48
2023-05-04T14:45:54.266Z,29.45
2023-05-04T14:46:54.069Z,29.46
2023-05-04T14:47:53.976Z,29.48
2023-05-04T14:48:53.757Z,29.46
2023-05-04T14:49:53.561Z,29.46
2023-05-04T14:50:53.365Z,29.45
2023-05-04T14:51:53.200Z,29.46
2023-05-04T14:52:53.009Z,29.44
2023-05-04T14:53:52.871Z,29.44
2023-05-04T14:54:52.692Z,29.44
2023-05-04T14:55:52.515Z,29.45
2023-05-04T14:56:52.336Z,29.44
2023-05-04T14:57:52.135Z,29.44
2023-05-04T14:58:51.952Z,29.44
2023-05-04T14:59:51.806Z,29.42
2023-05-04T15:00:51.591Z,29.46
2023-05-04T15:01:51.472Z,29.44
2023-05-04T15:02:51.253Z,29.42
2023-05-04T15:03:51.153Z,29.42
2023-05-04T15:04:50.894Z,29.42
2023-05-04T15:05:50.694Z,29.41
2023-05-04T15:06:50.566Z,29.42
2023-05-04T15:07:50.364Z,29.42
2023-05-04T15:08:50.168Z,29.42
2023-05-04T15:09:49.988Z,29.42
2023-05-04T15:10:49.827Z,29.41
2023-05-04T15:11:49.626Z,29.39
2023-05-04T15:12:49.504Z,29.41
2023-05-04T15:13:49.312Z,29.39
2023-05-04T15:14:49.203Z,29.35
2023-05-04T15:15:49.046Z,29.38
2023-05-04T15:16:48.860Z,29.37
2023-05-04T15:17:48.698Z,29.37
2023-05-04T15:18:48.520Z,29.37
2023-05-04T15:19:48.323Z,29.37
2023-05-04T15:20:48.144Z,29.35
2023-05-04T15:21:47.948Z,29.35
2023-05-04T15:22:47.769Z,29.35
2023-05-04T15:23:47.592Z,29.34
2023-05-04T15:24:47.435Z,29.34
2023-05-04T15:25:47.241Z,29.35
2023-05-04T15:26:47.072Z,29.35
2023-05-04T15:27:46.879Z,29.34
2023-05-04T15:28:46.701Z,29.35
2023-05-04T15:29:46.525Z,29.32
2023-05-04T15:30:46.360Z,29.35
2023-05-04T15:31:46.243Z,29.32
2023-05-04T15:32:46.025Z,29.31
2023-05-04T15:33:45.840Z,29.34
2023-05-04T15:34:48.177Z,29.35
2023-05-04T15:35:46.542Z,29.32
2023-05-04T15:36:45.360Z,29.32
2023-05-04T15:37:45.185Z,29.31
2023-05-04T15:38:45.014Z,29.31
2023-05-04T15:39:44.835Z,29.32
2023-05-04T15:40:44.693Z,29.31
2023-05-04T15:41:44.470Z,29.31
2023-05-04T15:42:44.330Z,29.29
2023-05-04T15:43:44.110Z,29.29
2023-05-04T15:44:43.941Z,29.28
2023-05-04T15:45:43.797Z,29.27
2023-05-04T15:46:43.727Z,29.27
2023-05-04T15:47:43.470Z,29.25
2023-05-04T15:48:43.253Z,29.27
2023-05-04T15:49:43.060Z,29.27
2023-05-04T15:50:42.890Z,29.27
2023-05-04T15:51:42.713Z,29.27
2023-05-04T15:52:42.546Z,29.27
2023-05-04T15:53:42.390Z,29.25
2023-05-04T15:54:42.193Z,29.27
2023-05-04T15:55:42.028Z,29.24
2023-05-04T15:56:41.822Z,29.24
2023-05-04T15:57:41.642Z,29.25
2023-05-04T15:58:41.475Z,29.22
2023-05-04T15:59:41.274Z,29.24
2023-05-04T16:00:41.197Z,29.24
2023-05-04T16:01:40.959Z,29.21
2023-05-04T16:02:40.788Z,29.21
2023-05-04T16:03:40.588Z,29.17
2023-05-04T16:04:40.406Z,29.21
2023-05-04T16:05:40.223Z,29.18
2023-05-04T16:06:40.039Z,29.18
2023-05-04T16:07:39.863Z,29.20
2023-05-04T16:08:39.671Z,29.18
2023-05-04T16:09:39.489Z,29.20
2023-05-04T16:10:39.314Z,29.18
2023-05-04T16:11:39.148Z,29.18
2023-05-04T16:12:38.965Z,29.16
2023-05-04T16:13:38.792Z,29.17
2023-05-04T16:14:38.616Z,29.16
2023-05-04T16:15:38.430Z,29.17
2023-05-04T16:16:38.298Z,29.16
2023-05-04T16:17:38.096Z,29.14
2023-05-04T16:18:37.886Z,29.16
2023-05-04T16:19:37.712Z,29.14
2023-05-04T16:20:37.517Z,29.14
2023-05-04T16:21:37.335Z,29.14
2023-05-04T16:22:37.212Z,29.13
2023-05-04T16:23:36.972Z,29.14
2023-05-04T16:24:36.820Z,29.13
2023-05-04T16:25:36.632Z,29.13
2023-05-04T16:26:36.451Z,29.13
2023-05-04T16:27:36.239Z,29.11
2023-05-04T16:28:36.072Z,29.13
2023-05-04T16:29:35.870Z,29.11
2023-05-04T16:30:35.706Z,29.09
2023-05-04T16:31:35.517Z,29.10
2023-05-04T16:32:35.339Z,29.09
2023-05-04T16:33:35.144Z,29.09
2023-05-04T16:34:34.969Z,29.09
2023-05-04T16:35:34.799Z,29.07
2023-05-04T16:36:34.620Z,29.07
2023-05-04T16:37:34.439Z,29.07
2023-05-04T16:38:34.266Z,29.06
2023-05-04T16:39:34.114Z,29.04
2023-05-04T16:40:33.899Z,29.04
2023-05-04T16:41:33.705Z,29.04
2023-05-04T16:42:33.528Z,29.03
2023-05-04T16:43:33.335Z,29.04
2023-05-04T16:44:33.141Z,29.06
2023-05-04T16:45:32.991Z,29.06
2023-05-04T16:46:32.806Z,29.03
2023-05-04T16:47:32.619Z,29.01
2023-05-04T16:48:32.396Z,29.04
2023-05-04T16:49:32.283Z,29.04
2023-05-04T16:50:32.039Z,29.01
2023-05-04T16:51:31.852Z,29.06
2023-05-04T16:52:31.725Z,29.03
2023-05-04T16:53:31.488Z,28.97
2023-05-04T16:54:31.321Z,29.00
2023-05-04T16:55:31.133Z,29.00
2023-05-04T16:56:30.944Z,28.99
2023-05-04T16:57:30.795Z,28.99
2023-05-04T16:58:30.637Z,28.97
2023-05-04T16:59:30.468Z,28.97
2023-05-04T17:00:30.312Z,28.99
2023-05-04T17:01:30.193Z,28.96
2023-05-04T17:02:30.021Z,28.96
2023-05-04T17:03:29.857Z,28.94
2023-05-04T17:04:29.664Z,28.97
2023-05-04T17:05:29.500Z,28.94
2023-05-04T17:06:29.329Z,28.93
2023-05-04T17:07:29.174Z,28.93
2023-05-04T17:08:29.010Z,28.93
2023-05-04T17:09:28.875Z,28.96
2023-05-04T17:10:28.696Z,28.94
2023-05-04T17:11:28.574Z,28.93
2023-05-04T17:12:28.381Z,28.90
2023-05-04T17:13:28.205Z,28.92
2023-05-04T17:14:28.058Z,28.92
2023-05-04T17:15:27.886Z,28.90
2023-05-04T17:16:27.779Z,28.89
2023-05-04T17:17:27.629Z,28.90
2023-05-04T17:18:27.416Z,28.90
2023-05-04T17:19:27.252Z,28.89
2023-05-04T17:20:27.109Z,28.87
2023-05-04T17:21:26.923Z,28.90
2023-05-04T17:22:26.823Z,28.89
2023-05-04T17:23:26.631Z,28.89
2023-05-04T17:24:26.445Z,28.89
2023-05-04T17:25:26.341Z,28.87